sensor_id;sensor_type;location;lat;lon;timestamp;P1;durP1;ratioP1;P2;durP2;ratioP2
52542;SDS011;38449;52.696;6.186;2023-06-10T00:00:43;8.23;;;5.07;;
52542;SDS011;38449;52.696;6.186;2023-06-10T00:03:10;8.57;;;4.75;;
52542;SDS011;38449;52.696;6.186;2023-06-10T00:05:36;8.23;;;4.90;;
52542;SDS011;38449;52.696;6.186;2023-06-10T00:08:04;10.43;;;5.18;;
52542;SDS011;38449;52.696;6.186;2023-06-10T00:10:36;7.20;;;5.10;;
52542;SDS011;38449;52.696;6.186;2023-06-10T00:13:04;7.55;;;4.85;;
52542;SDS011;38449;52.696;6.186;2023-06-10T00:15:34;7.43;;;4.63;;
52542;SDS011;38449;52.696;6.186;2023-06-10T00:18:01;7.55;;;4.57;;
52542;SDS011;38449;52.696;6.186;2023-06-10T00:20:29;8.88;;;4.65;;
52542;SDS011;38449;52.696;6.186;2023-06-10T00:22:58;7.00;;;4.40;;
52542;SDS011;38449;52.696;6.186;2023-06-10T00:25:26;8.10;;;4.32;;
52542;SDS011;38449;52.696;6.186;2023-06-10T00:27:53;10.32;;;5.03;;
52542;SDS011;38449;52.696;6.186;2023-06-10T00:30:19;10.43;;;5.13;;
52542;SDS011;38449;52.696;6.186;2023-06-10T00:32:46;7.32;;;4.78;;
52542;SDS011;38449;52.696;6.186;2023-06-10T00:35:12;8.88;;;4.60;;
52542;SDS011;38449;52.696;6.186;2023-06-10T00:37:38;8.15;;;4.60;;
52542;SDS011;38449;52.696;6.186;2023-06-10T00:40:05;8.43;;;5.00;;
52542;SDS011;38449;52.696;6.186;2023-06-10T00:42:33;8.52;;;4.70;;
52542;SDS011;38449;52.696;6.186;2023-06-10T00:45:00;9.57;;;4.88;;
52542;SDS011;38449;52.696;6.186;2023-06-10T00:47:27;7.82;;;4.60;;
52542;SDS011;38449;52.696;6.186;2023-06-10T00:49:53;9.77;;;4.97;;
52542;SDS011;38449;52.696;6.186;2023-06-10T00:52:20;7.80;;;4.20;;
52542;SDS011;38449;52.696;6.186;2023-06-10T00:54:49;6.75;;;4.13;;
52542;SDS011;38449;52.696;6.186;2023-06-10T00:57:16;8.80;;;4.85;;
52542;SDS011;38449;52.696;6.186;2023-06-10T00:59:42;7.43;;;4.65;;
52542;SDS011;38449;52.696;6.186;2023-06-10T01:02:13;8.93;;;4.57;;
52542;SDS011;38449;52.696;6.186;2023-06-10T01:04:40;9.25;;;5.13;;
52542;SDS011;38449;52.696;6.186;2023-06-10T01:07:14;9.35;;;4.70;;
52542;SDS011;38449;52.696;6.186;2023-06-10T01:10:02;9.02;;;4.78;;
52542;SDS011;38449;52.696;6.186;2023-06-10T01:15:04;8.00;;;4.85;;
52542;SDS011;38449;52.696;6.186;2023-06-10T01:17:31;10.38;;;4.63;;
52542;SDS011;38449;52.696;6.186;2023-06-10T01:19:58;10.30;;;5.43;;
52542;SDS011;38449;52.696;6.186;2023-06-10T01:22:25;8.25;;;4.95;;
52542;SDS011;38449;52.696;6.186;2023-06-10T01:24:58;10.27;;;4.82;;
52542;SDS011;38449;52.696;6.186;2023-06-10T01:27:26;8.38;;;4.75;;
52542;SDS011;38449;52.696;6.186;2023-06-10T01:29:59;10.15;;;4.90;;
52542;SDS011;38449;52.696;6.186;2023-06-10T01:32:40;9.70;;;5.00;;
52542;SDS011;38449;52.696;6.186;2023-06-10T01:35:11;6.63;;;4.55;;
52542;SDS011;38449;52.696;6.186;2023-06-10T01:37:38;8.30;;;4.80;;
52542;SDS011;38449;52.696;6.186;2023-06-10T01:40:05;8.88;;;5.07;;
52542;SDS011;38449;52.696;6.186;2023-06-10T01:42:32;8.82;;;5.22;;
52542;SDS011;38449;52.696;6.186;2023-06-10T01:44:59;8.70;;;5.35;;
52542;SDS011;38449;52.696;6.186;2023-06-10T01:47:25;8.32;;;5.18;;
52542;SDS011;38449;52.696;6.186;2023-06-10T01:49:52;8.02;;;5.40;;
52542;SDS011;38449;52.696;6.186;2023-06-10T01:52:18;8.00;;;4.72;;
52542;SDS011;38449;52.696;6.186;2023-06-10T01:54:44;9.30;;;5.50;;
52542;SDS011;38449;52.696;6.186;2023-06-10T01:57:10;8.52;;;5.20;;
52542;SDS011;38449;52.696;6.186;2023-06-10T01:59:37;10.32;;;4.97;;
52542;SDS011;38449;52.696;6.186;2023-06-10T02:02:04;8.52;;;5.72;;
52542;SDS011;38449;52.696;6.186;2023-06-10T02:04:31;8.75;;;5.50;;
52542;SDS011;38449;52.696;6.186;2023-06-10T02:06:57;7.60;;;4.82;;
52542;SDS011;38449;52.696;6.186;2023-06-10T02:09:23;8.35;;;4.90;;
52542;SDS011;38449;52.696;6.186;2023-06-10T02:11:50;10.18;;;5.50;;
52542;SDS011;38449;52.696;6.186;2023-06-10T02:14:16;9.32;;;5.10;;
52542;SDS011;38449;52.696;6.186;2023-06-10T02:16:43;8.82;;;5.35;;
52542;SDS011;38449;52.696;6.186;2023-06-10T02:19:11;8.68;;;5.53;;
52542;SDS011;38449;52.696;6.186;2023-06-10T02:21:38;8.27;;;5.53;;
52542;SDS011;38449;52.696;6.186;2023-06-10T02:24:04;9.93;;;5.80;;
52542;SDS011;38449;52.696;6.186;2023-06-10T02:26:31;10.48;;;5.53;;
52542;SDS011;38449;52.696;6.186;2023-06-10T02:28:57;8.25;;;5.38;;
52542;SDS011;38449;52.696;6.186;2023-06-10T02:31:24;9.40;;;5.60;;
52542;SDS011;38449;52.696;6.186;2023-06-10T02:33:50;8.63;;;5.50;;
52542;SDS011;38449;52.696;6.186;2023-06-10T02:36:17;12.43;;;5.47;;
52542;SDS011;38449;52.696;6.186;2023-06-10T02:38:43;8.38;;;5.55;;
52542;SDS011;38449;52.696;6.186;2023-06-10T02:41:09;12.57;;;6.05;;
52542;SDS011;38449;52.696;6.186;2023-06-10T02:43:35;7.93;;;5.55;;
52542;SDS011;38449;52.696;6.186;2023-06-10T02:46:02;9.75;;;5.38;;
52542;SDS011;38449;52.696;6.186;2023-06-10T02:48:28;8.75;;;5.78;;
52542;SDS011;38449;52.696;6.186;2023-06-10T02:50:54;9.55;;;5.55;;
52542;SDS011;38449;52.696;6.186;2023-06-10T02:53:21;9.07;;;6.10;;
52542;SDS011;38449;52.696;6.186;2023-06-10T02:55:47;10.73;;;5.65;;
52542;SDS011;38449;52.696;6.186;2023-06-10T02:58:14;8.80;;;5.78;;
52542;SDS011;38449;52.696;6.186;2023-06-10T03:00:40;9.95;;;5.75;;
52542;SDS011;38449;52.696;6.186;2023-06-10T03:03:08;9.85;;;5.97;;
52542;SDS011;38449;52.696;6.186;2023-06-10T03:05:36;8.00;;;5.82;;
52542;SDS011;38449;52.696;6.186;2023-06-10T03:08:02;11.32;;;6.25;;
52542;SDS011;38449;52.696;6.186;2023-06-10T03:10:28;10.27;;;5.90;;
52542;SDS011;38449;52.696;6.186;2023-06-10T03:12:55;10.25;;;5.93;;
52542;SDS011;38449;52.696;6.186;2023-06-10T03:15:21;7.72;;;5.90;;
52542;SDS011;38449;52.696;6.186;2023-06-10T03:17:47;8.05;;;5.72;;
52542;SDS011;38449;52.696;6.186;2023-06-10T03:20:13;9.38;;;5.72;;
52542;SDS011;38449;52.696;6.186;2023-06-10T03:22:41;8.65;;;5.65;;
52542;SDS011;38449;52.696;6.186;2023-06-10T03:25:07;9.40;;;5.93;;
52542;SDS011;38449;52.696;6.186;2023-06-10T03:30:06;8.20;;;5.85;;
52542;SDS011;38449;52.696;6.186;2023-06-10T03:32:33;10.02;;;5.75;;
52542;SDS011;38449;52.696;6.186;2023-06-10T03:34:59;10.65;;;6.50;;
52542;SDS011;38449;52.696;6.186;2023-06-10T03:37:25;10.00;;;6.60;;
52542;SDS011;38449;52.696;6.186;2023-06-10T03:39:52;10.73;;;6.75;;
52542;SDS011;38449;52.696;6.186;2023-06-10T03:42:18;10.35;;;5.70;;
52542;SDS011;38449;52.696;6.186;2023-06-10T03:44:44;9.23;;;6.15;;
52542;SDS011;38449;52.696;6.186;2023-06-10T03:47:10;9.95;;;6.10;;
52542;SDS011;38449;52.696;6.186;2023-06-10T03:49:38;8.10;;;5.35;;
52542;SDS011;38449;52.696;6.186;2023-06-10T03:52:06;10.65;;;6.30;;
52542;SDS011;38449;52.696;6.186;2023-06-10T03:54:32;8.77;;;5.93;;
52542;SDS011;38449;52.696;6.186;2023-06-10T03:57:00;8.82;;;5.95;;
52542;SDS011;38449;52.696;6.186;2023-06-10T03:59:26;10.15;;;5.50;;
52542;SDS011;38449;52.696;6.186;2023-06-10T04:01:54;10.27;;;5.43;;
52542;SDS011;38449;52.696;6.186;2023-06-10T04:04:20;9.63;;;5.30;;
52542;SDS011;38449;52.696;6.186;2023-06-10T04:06:46;7.60;;;6.00;;
52542;SDS011;38449;52.696;6.186;2023-06-10T04:09:14;8.60;;;5.65;;
52542;SDS011;38449;52.696;6.186;2023-06-10T04:11:41;7.65;;;5.38;;
52542;SDS011;38449;52.696;6.186;2023-06-10T04:14:08;9.25;;;5.45;;
52542;SDS011;38449;52.696;6.186;2023-06-10T04:16:34;11.10;;;6.18;;
52542;SDS011;38449;52.696;6.186;2023-06-10T04:19:01;9.32;;;5.35;;
52542;SDS011;38449;52.696;6.186;2023-06-10T04:21:27;8.15;;;5.68;;
52542;SDS011;38449;52.696;6.186;2023-06-10T04:23:53;10.10;;;5.55;;
52542;SDS011;38449;52.696;6.186;2023-06-10T04:26:19;7.80;;;5.38;;
52542;SDS011;38449;52.696;6.186;2023-06-10T04:28:45;9.60;;;5.05;;
52542;SDS011;38449;52.696;6.186;2023-06-10T04:31:12;8.90;;;5.10;;
52542;SDS011;38449;52.696;6.186;2023-06-10T04:33:38;9.88;;;5.40;;
52542;SDS011;38449;52.696;6.186;2023-06-10T04:36:05;8.38;;;5.38;;
52542;SDS011;38449;52.696;6.186;2023-06-10T04:38:32;10.13;;;5.60;;
52542;SDS011;38449;52.696;6.186;2023-06-10T04:40:59;7.65;;;5.68;;
52542;SDS011;38449;52.696;6.186;2023-06-10T04:43:25;8.95;;;5.53;;
52542;SDS011;38449;52.696;6.186;2023-06-10T04:45:52;10.48;;;5.28;;
52542;SDS011;38449;52.696;6.186;2023-06-10T04:48:19;9.23;;;5.47;;
52542;SDS011;38449;52.696;6.186;2023-06-10T04:50:45;10.85;;;5.50;;
52542;SDS011;38449;52.696;6.186;2023-06-10T04:53:11;10.88;;;5.95;;
52542;SDS011;38449;52.696;6.186;2023-06-10T04:55:38;9.70;;;5.55;;
52542;SDS011;38449;52.696;6.186;2023-06-10T04:58:04;7.22;;;5.30;;
52542;SDS011;38449;52.696;6.186;2023-06-10T05:00:30;9.68;;;5.75;;
52542;SDS011;38449;52.696;6.186;2023-06-10T05:02:56;7.05;;;5.18;;
52542;SDS011;38449;52.696;6.186;2023-06-10T05:05:23;9.13;;;5.70;;
52542;SDS011;38449;52.696;6.186;2023-06-10T05:07:49;8.95;;;5.30;;
52542;SDS011;38449;52.696;6.186;2023-06-10T05:10:15;9.05;;;4.97;;
52542;SDS011;38449;52.696;6.186;2023-06-10T05:12:41;8.05;;;5.55;;
52542;SDS011;38449;52.696;6.186;2023-06-10T05:15:08;7.60;;;5.15;;
52542;SDS011;38449;52.696;6.186;2023-06-10T05:17:34;9.38;;;5.55;;
52542;SDS011;38449;52.696;6.186;2023-06-10T05:20:01;7.65;;;5.07;;
52542;SDS011;38449;52.696;6.186;2023-06-10T05:22:28;8.93;;;5.07;;
52542;SDS011;38449;52.696;6.186;2023-06-10T05:24:55;8.82;;;4.95;;
52542;SDS011;38449;52.696;6.186;2023-06-10T05:27:21;7.80;;;5.20;;
52542;SDS011;38449;52.696;6.186;2023-06-10T05:29:48;7.85;;;5.18;;
52542;SDS011;38449;52.696;6.186;2023-06-10T05:32:14;7.50;;;4.75;;
52542;SDS011;38449;52.696;6.186;2023-06-10T05:34:40;9.55;;;5.30;;
52542;SDS011;38449;52.696;6.186;2023-06-10T05:37:06;9.10;;;4.72;;
52542;SDS011;38449;52.696;6.186;2023-06-10T05:39:33;9.18;;;5.32;;
52542;SDS011;38449;52.696;6.186;2023-06-10T05:42:04;7.70;;;5.00;;
52542;SDS011;38449;52.696;6.186;2023-06-10T05:44:32;9.15;;;5.72;;
52542;SDS011;38449;52.696;6.186;2023-06-10T05:46:58;8.48;;;5.07;;
52542;SDS011;38449;52.696;6.186;2023-06-10T05:49:25;8.30;;;5.47;;
52542;SDS011;38449;52.696;6.186;2023-06-10T05:51:51;9.30;;;4.80;;
52542;SDS011;38449;52.696;6.186;2023-06-10T05:54:18;8.80;;;5.15;;
52542;SDS011;38449;52.696;6.186;2023-06-10T05:56:45;10.10;;;5.32;;
52542;SDS011;38449;52.696;6.186;2023-06-10T05:59:11;8.70;;;5.47;;
52542;SDS011;38449;52.696;6.186;2023-06-10T06:01:37;9.15;;;4.85;;
52542;SDS011;38449;52.696;6.186;2023-06-10T06:04:03;8.70;;;5.13;;
52542;SDS011;38449;52.696;6.186;2023-06-10T06:06:30;8.00;;;4.70;;
52542;SDS011;38449;52.696;6.186;2023-06-10T06:08:56;7.22;;;5.30;;
52542;SDS011;38449;52.696;6.186;2023-06-10T06:11:22;7.47;;;4.55;;
52542;SDS011;38449;52.696;6.186;2023-06-10T06:13:48;7.72;;;5.03;;
52542;SDS011;38449;52.696;6.186;2023-06-10T06:16:15;6.68;;;4.95;;
52542;SDS011;38449;52.696;6.186;2023-06-10T06:18:41;8.00;;;4.60;;
52542;SDS011;38449;52.696;6.186;2023-06-10T06:21:07;6.95;;;4.57;;
52542;SDS011;38449;52.696;6.186;2023-06-10T06:23:33;10.40;;;5.03;;
52542;SDS011;38449;52.696;6.186;2023-06-10T06:26:00;7.82;;;5.07;;
52542;SDS011;38449;52.696;6.186;2023-06-10T06:28:26;9.30;;;5.13;;
52542;SDS011;38449;52.696;6.186;2023-06-10T06:30:55;8.85;;;4.72;;
52542;SDS011;38449;52.696;6.186;2023-06-10T06:33:22;9.85;;;5.30;;
52542;SDS011;38449;52.696;6.186;2023-06-10T06:35:48;10.13;;;4.78;;
52542;SDS011;38449;52.696;6.186;2023-06-10T06:38:14;7.20;;;5.40;;
52542;SDS011;38449;52.696;6.186;2023-06-10T06:40:40;9.43;;;5.18;;
52542;SDS011;38449;52.696;6.186;2023-06-10T06:43:06;10.68;;;4.78;;
52542;SDS011;38449;52.696;6.186;2023-06-10T06:45:33;8.48;;;5.10;;
52542;SDS011;38449;52.696;6.186;2023-06-10T06:47:59;9.75;;;4.97;;
52542;SDS011;38449;52.696;6.186;2023-06-10T06:50:25;9.35;;;5.00;;
52542;SDS011;38449;52.696;6.186;2023-06-10T06:52:52;6.68;;;4.53;;
52542;SDS011;38449;52.696;6.186;2023-06-10T06:55:18;7.28;;;4.63;;
52542;SDS011;38449;52.696;6.186;2023-06-10T06:57:44;7.72;;;4.68;;
52542;SDS011;38449;52.696;6.186;2023-06-10T07:00:11;7.97;;;4.63;;
52542;SDS011;38449;52.696;6.186;2023-06-10T07:02:38;8.05;;;4.75;;
52542;SDS011;38449;52.696;6.186;2023-06-10T07:05:04;7.25;;;4.70;;
52542;SDS011;38449;52.696;6.186;2023-06-10T07:07:31;7.22;;;4.70;;
52542;SDS011;38449;52.696;6.186;2023-06-10T07:09:57;7.10;;;4.80;;
52542;SDS011;38449;52.696;6.186;2023-06-10T07:12:23;9.38;;;5.28;;
52542;SDS011;38449;52.696;6.186;2023-06-10T07:14:50;8.68;;;4.97;;
52542;SDS011;38449;52.696;6.186;2023-06-10T07:17:17;6.47;;;4.93;;
52542;SDS011;38449;52.696;6.186;2023-06-10T07:19:46;7.75;;;5.20;;
52542;SDS011;38449;52.696;6.186;2023-06-10T07:22:12;10.82;;;4.68;;
52542;SDS011;38449;52.696;6.186;2023-06-10T07:24:39;9.65;;;5.20;;
52542;SDS011;38449;52.696;6.186;2023-06-10T07:27:06;6.30;;;4.28;;
52542;SDS011;38449;52.696;6.186;2023-06-10T07:29:32;7.88;;;4.55;;
52542;SDS011;38449;52.696;6.186;2023-06-10T07:31:59;8.80;;;5.32;;
52542;SDS011;38449;52.696;6.186;2023-06-10T07:34:25;8.65;;;4.50;;
52542;SDS011;38449;52.696;6.186;2023-06-10T07:36:51;7.90;;;4.75;;
52542;SDS011;38449;52.696;6.186;2023-06-10T07:39:17;7.95;;;4.90;;
52542;SDS011;38449;52.696;6.186;2023-06-10T07:41:44;9.95;;;5.90;;
52542;SDS011;38449;52.696;6.186;2023-06-10T07:44:10;7.80;;;5.30;;
52542;SDS011;38449;52.696;6.186;2023-06-10T07:46:36;9.32;;;5.75;;
52542;SDS011;38449;52.696;6.186;2023-06-10T07:49:02;8.52;;;5.47;;
52542;SDS011;38449;52.696;6.186;2023-06-10T07:51:29;7.63;;;4.50;;
52542;SDS011;38449;52.696;6.186;2023-06-10T07:53:55;10.10;;;5.15;;
52542;SDS011;38449;52.696;6.186;2023-06-10T07:56:21;7.95;;;4.78;;
52542;SDS011;38449;52.696;6.186;2023-06-10T07:58:48;6.65;;;4.72;;
52542;SDS011;38449;52.696;6.186;2023-06-10T08:01:14;8.07;;;4.72;;
52542;SDS011;38449;52.696;6.186;2023-06-10T08:03:40;7.40;;;4.55;;
52542;SDS011;38449;52.696;6.186;2023-06-10T08:06:07;10.30;;;4.97;;
52542;SDS011;38449;52.696;6.186;2023-06-10T08:08:33;8.63;;;4.50;;
52542;SDS011;38449;52.696;6.186;2023-06-10T08:11:00;10.95;;;4.93;;
52542;SDS011;38449;52.696;6.186;2023-06-10T08:13:26;9.27;;;5.38;;
52542;SDS011;38449;52.696;6.186;2023-06-10T08:15:52;8.20;;;5.20;;
52542;SDS011;38449;52.696;6.186;2023-06-10T08:18:21;10.82;;;5.75;;
52542;SDS011;38449;52.696;6.186;2023-06-10T08:20:47;7.22;;;5.60;;
52542;SDS011;38449;52.696;6.186;2023-06-10T08:23:13;9.55;;;4.95;;
52542;SDS011;38449;52.696;6.186;2023-06-10T08:25:40;8.52;;;4.38;;
52542;SDS011;38449;52.696;6.186;2023-06-10T08:28:06;9.20;;;5.35;;
52542;SDS011;38449;52.696;6.186;2023-06-10T08:30:32;7.65;;;4.72;;
52542;SDS011;38449;52.696;6.186;2023-06-10T08:32:59;7.93;;;4.80;;
52542;SDS011;38449;52.696;6.186;2023-06-10T08:35:25;7.45;;;4.60;;
52542;SDS011;38449;52.696;6.186;2023-06-10T08:37:52;8.68;;;4.78;;
52542;SDS011;38449;52.696;6.186;2023-06-10T08:40:18;5.47;;;4.00;;
52542;SDS011;38449;52.696;6.186;2023-06-10T08:43:06;6.85;;;4.45;;
52542;SDS011;38449;52.696;6.186;2023-06-10T08:45:34;9.88;;;4.63;;
52542;SDS011;38449;52.696;6.186;2023-06-10T08:48:03;7.45;;;3.92;;
52542;SDS011;38449;52.696;6.186;2023-06-10T08:50:36;5.60;;;4.13;;
52542;SDS011;38449;52.696;6.186;2023-06-10T08:53:06;8.15;;;4.15;;
52542;SDS011;38449;52.696;6.186;2023-06-10T08:55:35;9.45;;;4.18;;
52542;SDS011;38449;52.696;6.186;2023-06-10T08:58:04;6.35;;;4.03;;
52542;SDS011;38449;52.696;6.186;2023-06-10T09:00:30;7.60;;;4.65;;
52542;SDS011;38449;52.696;6.186;2023-06-10T09:02:58;5.80;;;3.92;;
52542;SDS011;38449;52.696;6.186;2023-06-10T09:05:26;6.80;;;4.30;;
52542;SDS011;38449;52.696;6.186;2023-06-10T09:07:54;8.40;;;4.70;;
52542;SDS011;38449;52.696;6.186;2023-06-10T09:10:23;7.75;;;4.28;;
52542;SDS011;38449;52.696;6.186;2023-06-10T09:12:49;6.10;;;4.38;;
52542;SDS011;38449;52.696;6.186;2023-06-10T09:15:16;6.15;;;4.38;;
52542;SDS011;38449;52.696;6.186;2023-06-10T09:17:43;9.05;;;5.10;;
52542;SDS011;38449;52.696;6.186;2023-06-10T09:20:10;6.55;;;3.83;;
52542;SDS011;38449;52.696;6.186;2023-06-10T09:22:37;7.65;;;4.20;;
52542;SDS011;38449;52.696;6.186;2023-06-10T09:25:04;7.43;;;4.65;;
52542;SDS011;38449;52.696;6.186;2023-06-10T09:27:32;9.65;;;5.13;;
52542;SDS011;38449;52.696;6.186;2023-06-10T09:30:37;9.07;;;4.47;;
52542;SDS011;38449;52.696;6.186;2023-06-10T09:33:03;8.82;;;5.05;;
52542;SDS011;38449;52.696;6.186;2023-06-10T09:35:44;11.45;;;4.30;;
52542;SDS011;38449;52.696;6.186;2023-06-10T09:38:13;7.03;;;4.70;;
52542;SDS011;38449;52.696;6.186;2023-06-10T09:40:54;5.82;;;4.25;;
52542;SDS011;38449;52.696;6.186;2023-06-10T09:43:20;7.68;;;4.40;;
52542;SDS011;38449;52.696;6.186;2023-06-10T09:45:48;7.22;;;4.35;;
52542;SDS011;38449;52.696;6.186;2023-06-10T09:48:21;8.75;;;4.55;;
52542;SDS011;38449;52.696;6.186;2023-06-10T09:50:49;6.05;;;4.38;;
52542;SDS011;38449;52.696;6.186;2023-06-10T09:53:16;7.30;;;4.93;;
52542;SDS011;38449;52.696;6.186;2023-06-10T09:55:43;7.15;;;4.38;;
52542;SDS011;38449;52.696;6.186;2023-06-10T09:58:10;5.75;;;4.55;;
52542;SDS011;38449;52.696;6.186;2023-06-10T10:00:36;8.50;;;4.88;;
52542;SDS011;38449;52.696;6.186;2023-06-10T10:03:02;6.57;;;4.53;;
52542;SDS011;38449;52.696;6.186;2023-06-10T10:05:29;11.40;;;4.97;;
52542;SDS011;38449;52.696;6.186;2023-06-10T10:07:55;6.38;;;4.55;;
52542;SDS011;38449;52.696;6.186;2023-06-10T10:10:22;8.43;;;5.10;;
52542;SDS011;38449;52.696;6.186;2023-06-10T10:12:55;7.57;;;5.28;;
52542;SDS011;38449;52.696;6.186;2023-06-10T10:15:21;8.02;;;4.93;;
52542;SDS011;38449;52.696;6.186;2023-06-10T10:20:29;8.00;;;4.72;;
52542;SDS011;38449;52.696;6.186;2023-06-10T10:22:58;6.57;;;4.32;;
52542;SDS011;38449;52.696;6.186;2023-06-10T10:25:29;7.32;;;4.63;;
52542;SDS011;38449;52.696;6.186;2023-06-10T10:28:10;7.10;;;4.65;;
52542;SDS011;38449;52.696;6.186;2023-06-10T10:30:39;8.07;;;5.43;;
52542;SDS011;38449;52.696;6.186;2023-06-10T10:33:13;7.57;;;5.97;;
52542;SDS011;38449;52.696;6.186;2023-06-10T10:35:44;7.03;;;5.22;;
52542;SDS011;38449;52.696;6.186;2023-06-10T10:38:12;7.97;;;4.95;;
52542;SDS011;38449;52.696;6.186;2023-06-10T10:40:38;6.90;;;4.50;;
52542;SDS011;38449;52.696;6.186;2023-06-10T10:43:05;7.63;;;4.95;;
52542;SDS011;38449;52.696;6.186;2023-06-10T10:45:33;6.47;;;4.63;;
52542;SDS011;38449;52.696;6.186;2023-06-10T10:48:04;7.05;;;4.90;;
52542;SDS011;38449;52.696;6.186;2023-06-10T10:50:35;7.63;;;5.15;;
52542;SDS011;38449;52.696;6.186;2023-06-10T10:53:03;5.90;;;4.80;;
52542;SDS011;38449;52.696;6.186;2023-06-10T10:55:31;9.35;;;5.63;;
52542;SDS011;38449;52.696;6.186;2023-06-10T10:58:04;7.28;;;5.32;;
52542;SDS011;38449;52.696;6.186;2023-06-10T11:00:32;7.15;;;5.32;;
52542;SDS011;38449;52.696;6.186;2023-06-10T11:03:13;7.65;;;5.13;;
52542;SDS011;38449;52.696;6.186;2023-06-10T11:05:43;8.15;;;4.88;;
52542;SDS011;38449;52.696;6.186;2023-06-10T11:09:00;7.70;;;4.80;;
52542;SDS011;38449;52.696;6.186;2023-06-10T11:11:01;7.93;;;4.85;;
52542;SDS011;38449;52.696;6.186;2023-06-10T11:13:57;9.63;;;4.93;;
52542;SDS011;38449;52.696;6.186;2023-06-10T11:16:39;7.18;;;4.95;;
52542;SDS011;38449;52.696;6.186;2023-06-10T11:21:57;6.78;;;4.65;;
52542;SDS011;38449;52.696;6.186;2023-06-10T11:24:28;6.93;;;5.00;;
52542;SDS011;38449;52.696;6.186;2023-06-10T11:26:55;9.00;;;5.53;;
52542;SDS011;38449;52.696;6.186;2023-06-10T11:32:29;9.13;;;4.80;;
52542;SDS011;38449;52.696;6.186;2023-06-10T11:34:59;5.70;;;4.53;;
52542;SDS011;38449;52.696;6.186;2023-06-10T11:37:29;8.43;;;4.65;;
52542;SDS011;38449;52.696;6.186;2023-06-10T11:39:55;7.75;;;4.60;;
52542;SDS011;38449;52.696;6.186;2023-06-10T11:42:22;7.30;;;4.47;;
52542;SDS011;38449;52.696;6.186;2023-06-10T11:44:49;6.00;;;4.10;;
52542;SDS011;38449;52.696;6.186;2023-06-10T11:47:17;6.95;;;5.00;;
52542;SDS011;38449;52.696;6.186;2023-06-10T11:49:44;6.50;;;4.72;;
52542;SDS011;38449;52.696;6.186;2023-06-10T11:52:11;5.88;;;4.30;;
52542;SDS011;38449;52.696;6.186;2023-06-10T11:54:37;6.38;;;4.43;;
52542;SDS011;38449;52.696;6.186;2023-06-10T11:57:04;5.68;;;4.47;;
52542;SDS011;38449;52.696;6.186;2023-06-10T11:59:31;7.10;;;4.22;;
52542;SDS011;38449;52.696;6.186;2023-06-10T12:01:57;5.03;;;4.28;;
52542;SDS011;38449;52.696;6.186;2023-06-10T12:04:24;9.85;;;4.60;;
52542;SDS011;38449;52.696;6.186;2023-06-10T12:06:52;7.45;;;4.57;;
52542;SDS011;38449;52.696;6.186;2023-06-10T12:09:20;6.25;;;4.47;;
52542;SDS011;38449;52.696;6.186;2023-06-10T12:11:50;5.22;;;4.30;;
52542;SDS011;38449;52.696;6.186;2023-06-10T12:17:36;6.10;;;3.83;;
52542;SDS011;38449;52.696;6.186;2023-06-10T12:20:07;9.30;;;4.05;;
52542;SDS011;38449;52.696;6.186;2023-06-10T12:22:39;10.65;;;4.47;;
52542;SDS011;38449;52.696;6.186;2023-06-10T12:25:07;5.25;;;4.10;;
52542;SDS011;38449;52.696;6.186;2023-06-10T12:27:34;5.50;;;3.67;;
52542;SDS011;38449;52.696;6.186;2023-06-10T12:30:02;8.05;;;4.13;;
52542;SDS011;38449;52.696;6.186;2023-06-10T12:35:05;6.32;;;4.13;;
52542;SDS011;38449;52.696;6.186;2023-06-10T12:37:33;9.20;;;3.97;;
52542;SDS011;38449;52.696;6.186;2023-06-10T12:40:00;4.63;;;3.65;;
52542;SDS011;38449;52.696;6.186;2023-06-10T12:42:29;7.57;;;3.58;;
52542;SDS011;38449;52.696;6.186;2023-06-10T12:44:57;4.95;;;3.33;;
52542;SDS011;38449;52.696;6.186;2023-06-10T12:47:30;5.30;;;3.28;;
52542;SDS011;38449;52.696;6.186;2023-06-10T12:50:07;6.78;;;3.65;;
52542;SDS011;38449;52.696;6.186;2023-06-10T12:52:34;6.07;;;4.00;;
52542;SDS011;38449;52.696;6.186;2023-06-10T12:55:00;6.30;;;4.07;;
52542;SDS011;38449;52.696;6.186;2023-06-10T12:57:26;4.95;;;3.47;;
52542;SDS011;38449;52.696;6.186;2023-06-10T12:59:53;6.18;;;3.45;;
52542;SDS011;38449;52.696;6.186;2023-06-10T13:02:19;4.15;;;3.40;;
52542;SDS011;38449;52.696;6.186;2023-06-10T13:04:46;4.65;;;3.40;;
52542;SDS011;38449;52.696;6.186;2023-06-10T13:07:12;4.78;;;3.15;;
52542;SDS011;38449;52.696;6.186;2023-06-10T13:09:39;4.45;;;3.30;;
52542;SDS011;38449;52.696;6.186;2023-06-10T13:12:05;4.70;;;3.50;;
52542;SDS011;38449;52.696;6.186;2023-06-10T13:14:32;4.70;;;3.35;;
52542;SDS011;38449;52.696;6.186;2023-06-10T13:16:58;4.30;;;3.00;;
52542;SDS011;38449;52.696;6.186;2023-06-10T13:19:24;4.75;;;3.20;;
52542;SDS011;38449;52.696;6.186;2023-06-10T13:21:51;4.53;;;3.17;;
52542;SDS011;38449;52.696;6.186;2023-06-10T13:24:18;7.18;;;3.50;;
52542;SDS011;38449;52.696;6.186;2023-06-10T13:26:45;4.95;;;3.20;;
52542;SDS011;38449;52.696;6.186;2023-06-10T13:29:12;4.07;;;3.22;;
52542;SDS011;38449;52.696;6.186;2023-06-10T13:31:40;4.85;;;3.65;;
52542;SDS011;38449;52.696;6.186;2023-06-10T13:34:06;6.28;;;3.50;;
52542;SDS011;38449;52.696;6.186;2023-06-10T13:36:32;5.72;;;3.50;;
52542;SDS011;38449;52.696;6.186;2023-06-10T13:38:59;5.47;;;3.17;;
52542;SDS011;38449;52.696;6.186;2023-06-10T13:41:25;5.20;;;3.42;;
52542;SDS011;38449;52.696;6.186;2023-06-10T13:43:54;3.85;;;2.80;;
52542;SDS011;38449;52.696;6.186;2023-06-10T13:46:21;5.95;;;3.28;;
52542;SDS011;38449;52.696;6.186;2023-06-10T13:48:47;5.35;;;3.35;;
52542;SDS011;38449;52.696;6.186;2023-06-10T13:51:14;4.53;;;3.15;;
52542;SDS011;38449;52.696;6.186;2023-06-10T13:53:40;4.30;;;3.13;;
52542;SDS011;38449;52.696;6.186;2023-06-10T13:56:06;4.05;;;3.10;;
52542;SDS011;38449;52.696;6.186;2023-06-10T13:58:33;3.88;;;3.28;;
52542;SDS011;38449;52.696;6.186;2023-06-10T14:01:04;4.55;;;2.95;;
52542;SDS011;38449;52.696;6.186;2023-06-10T14:03:31;4.53;;;2.80;;
52542;SDS011;38449;52.696;6.186;2023-06-10T14:05:58;5.35;;;2.90;;
52542;SDS011;38449;52.696;6.186;2023-06-10T14:08:24;4.97;;;2.83;;
52542;SDS011;38449;52.696;6.186;2023-06-10T14:10:50;5.13;;;2.92;;
52542;SDS011;38449;52.696;6.186;2023-06-10T14:13:17;4.15;;;2.80;;
52542;SDS011;38449;52.696;6.186;2023-06-10T14:15:43;4.35;;;2.92;;
52542;SDS011;38449;52.696;6.186;2023-06-10T14:18:11;6.05;;;3.00;;
52542;SDS011;38449;52.696;6.186;2023-06-10T14:20:37;4.95;;;2.70;;
52542;SDS011;38449;52.696;6.186;2023-06-10T14:23:03;4.70;;;3.22;;
52542;SDS011;38449;52.696;6.186;2023-06-10T14:25:30;4.57;;;2.90;;
52542;SDS011;38449;52.696;6.186;2023-06-10T14:27:56;4.07;;;2.78;;
52542;SDS011;38449;52.696;6.186;2023-06-10T14:30:23;5.15;;;3.03;;
52542;SDS011;38449;52.696;6.186;2023-06-10T14:32:49;3.55;;;3.00;;
52542;SDS011;38449;52.696;6.186;2023-06-10T14:35:15;3.58;;;2.78;;
52542;SDS011;38449;52.696;6.186;2023-06-10T14:37:42;3.85;;;2.50;;
52542;SDS011;38449;52.696;6.186;2023-06-10T14:40:08;4.07;;;3.10;;
52542;SDS011;38449;52.696;6.186;2023-06-10T14:42:35;4.28;;;2.90;;
52542;SDS011;38449;52.696;6.186;2023-06-10T14:45:01;4.07;;;3.10;;
52542;SDS011;38449;52.696;6.186;2023-06-10T14:47:27;4.25;;;2.80;;
52542;SDS011;38449;52.696;6.186;2023-06-10T14:49:54;4.45;;;3.20;;
52542;SDS011;38449;52.696;6.186;2023-06-10T14:52:20;5.15;;;2.90;;
52542;SDS011;38449;52.696;6.186;2023-06-10T14:54:46;4.75;;;3.38;;
52542;SDS011;38449;52.696;6.186;2023-06-10T14:57:13;4.53;;;2.80;;
52542;SDS011;38449;52.696;6.186;2023-06-10T14:59:39;5.95;;;2.80;;
52542;SDS011;38449;52.696;6.186;2023-06-10T15:02:06;4.18;;;2.88;;
52542;SDS011;38449;52.696;6.186;2023-06-10T15:04:32;5.63;;;3.10;;
52542;SDS011;38449;52.696;6.186;2023-06-10T15:06:58;4.00;;;3.15;;